sensor_id;sensor_type;location;lat;lon;timestamp;temperature;humidity
21582;DHT22;10952;50.836;4.348;2024-02-14T00:02:21;10.40;99.90
21582;DHT22;10952;50.836;4.348;2024-02-14T00:04:47;10.40;99.90
21582;DHT22;10952;50.836;4.348;2024-02-14T00:07:13;10.40;99.90
21582;DHT22;10952;50.836;4.348;2024-02-14T00:09:40;10.50;99.90
21582;DHT22;10952;50.836;4.348;2024-02-14T00:12:06;10.50;99.90
21582;DHT22;10952;50.836;4.348;2024-02-14T00:14:31;10.50;99.90
21582;DHT22;10952;50.836;4.348;2024-02-14T00:16:57;10.60;99.90
21582;DHT22;10952;50.836;4.348;2024-02-14T00:19:24;10.50;99.90
21582;DHT22;10952;50.836;4.348;2024-02-14T00:21:50;10.40;99.90
21582;DHT22;10952;50.836;4.348;2024-02-14T00:24:16;10.40;99.90
21582;DHT22;10952;50.836;4.348;2024-02-14T00:26:44;10.50;99.90
21582;DHT22;10952;50.836;4.348;2024-02-14T00:29:11;10.50;99.90
21582;DHT22;10952;50.836;4.348;2024-02-14T00:31:37;10.50;99.90
21582;DHT22;10952;50.836;4.348;2024-02-14T00:34:03;10.50;99.90
21582;DHT22;10952;50.836;4.348;2024-02-14T00:36:30;10.50;99.90
21582;DHT22;10952;50.836;4.348;2024-02-14T00:38:55;10.60;99.90
21582;DHT22;10952;50.836;4.348;2024-02-14T00:41:21;10.60;99.90
21582;DHT22;10952;50.836;4.348;2024-02-14T00:43:47;10.70;99.90
21582;DHT22;10952;50.836;4.348;2024-02-14T00:46:16;10.70;99.90
21582;DHT22;10952;50.836;4.348;2024-02-14T00:48:42;10.70;99.90
21582;DHT22;10952;50.836;4.348;2024-02-14T00:51:10;10.70;99.90
21582;DHT22;10952;50.836;4.348;2024-02-14T00:53:35;10.80;99.90
21582;DHT22;10952;50.836;4.348;2024-02-14T00:56:01;10.90;99.90
21582;DHT22;10952;50.836;4.348;2024-02-14T00:58:28;10.90;99.90
21582;DHT22;10952;50.836;4.348;2024-02-14T01:00:53;10.80;99.90
21582;DHT22;10952;50.836;4.348;2024-02-14T01:03:19;10.80;99.90
21582;DHT22;10952;50.836;4.348;2024-02-14T01:05:45;10.80;99.90
21582;DHT22;10952;50.836;4.348;2024-02-14T01:08:10;10.70;99.90
21582;DHT22;10952;50.836;4.348;2024-02-14T01:10:36;10.80;99.90
21582;DHT22;10952;50.836;4.348;2024-02-14T01:13:02;10.80;99.90
21582;DHT22;10952;50.836;4.348;2024-02-14T01:15:28;10.80;99.90
21582;DHT22;10952;50.836;4.348;2024-02-14T01:17:53;10.70;99.90
21582;DHT22;10952;50.836;4.348;2024-02-14T01:20:19;10.70;99.90
21582;DHT22;10952;50.836;4.348;2024-02-14T01:22:45;10.70;99.90
21582;DHT22;10952;50.836;4.348;2024-02-14T01:25:12;10.60;99.90
21582;DHT22;10952;50.836;4.348;2024-02-14T01:27:38;10.60;99.90
21582;DHT22;10952;50.836;4.348;2024-02-14T01:30:04;10.50;99.90
21582;DHT22;10952;50.836;4.348;2024-02-14T01:32:31;10.50;99.90
21582;DHT22;10952;50.836;4.348;2024-02-14T01:34:57;10.50;99.90
21582;DHT22;10952;50.836;4.348;2024-02-14T01:37:22;10.50;99.90
21582;DHT22;10952;50.836;4.348;2024-02-14T01:39:48;10.50;99.90
21582;DHT22;10952;50.836;4.348;2024-02-14T01:42:14;10.50;99.90
21582;DHT22;10952;50.836;4.348;2024-02-14T01:44:40;10.40;99.90
21582;DHT22;10952;50.836;4.348;2024-02-14T01:47:05;10.50;99.90
21582;DHT22;10952;50.836;4.348;2024-02-14T01:49:33;10.60;99.90
21582;DHT22;10952;50.836;4.348;2024-02-14T01:52:01;10.60;99.90
21582;DHT22;10952;50.836;4.348;2024-02-14T01:54:28;10.60;99.90
21582;DHT22;10952;50.836;4.348;2024-02-14T01:56:55;10.60;99.90
21582;DHT22;10952;50.836;4.348;2024-02-14T01:59:22;10.70;99.90
21582;DHT22;10952;50.836;4.348;2024-02-14T02:01:48;10.70;99.90
21582;DHT22;10952;50.836;4.348;2024-02-14T02:04:14;10.60;99.90
21582;DHT22;10952;50.836;4.348;2024-02-14T02:06:40;10.50;99.90
21582;DHT22;10952;50.836;4.348;2024-02-14T02:09:08;10.50;99.90
21582;DHT22;10952;50.836;4.348;2024-02-14T02:11:48;10.40;99.90
21582;DHT22;10952;50.836;4.348;2024-02-14T02:14:14;10.50;99.90
21582;DHT22;10952;50.836;4.348;2024-02-14T02:16:40;10.50;99.90
21582;DHT22;10952;50.836;4.348;2024-02-14T02:19:06;10.60;99.90
21582;DHT22;10952;50.836;4.348;2024-02-14T02:21:35;10.60;99.90
21582;DHT22;10952;50.836;4.348;2024-02-14T02:24:01;10.70;99.90
21582;DHT22;10952;50.836;4.348;2024-02-14T02:26:27;10.60;99.90
21582;DHT22;10952;50.836;4.348;2024-02-14T02:28:53;10.60;99.90
21582;DHT22;10952;50.836;4.348;2024-02-14T02:31:20;10.60;99.90
21582;DHT22;10952;50.836;4.348;2024-02-14T02:33:46;10.60;99.90
21582;DHT22;10952;50.836;4.348;2024-02-14T02:36:11;10.70;99.90
21582;DHT22;10952;50.836;4.348;2024-02-14T02:38:37;10.70;99.90
21582;DHT22;10952;50.836;4.348;2024-02-14T02:41:03;10.80;99.90
21582;DHT22;10952;50.836;4.348;2024-02-14T02:43:32;10.80;99.90
21582;DHT22;10952;50.836;4.348;2024-02-14T02:45:58;10.80;99.90
21582;DHT22;10952;50.836;4.348;2024-02-14T02:48:24;10.80;99.90
21582;DHT22;10952;50.836;4.348;2024-02-14T02:50:50;10.90;99.90
21582;DHT22;10952;50.836;4.348;2024-02-14T02:53:17;11.00;99.90
21582;DHT22;10952;50.836;4.348;2024-02-14T02:55:42;11.00;99.90
21582;DHT22;10952;50.836;4.348;2024-02-14T02:58:09;10.90;99.90
21582;DHT22;10952;50.836;4.348;2024-02-14T03:00:34;10.90;99.90
21582;DHT22;10952;50.836;4.348;2024-02-14T03:03:00;10.90;99.90
21582;DHT22;10952;50.836;4.348;2024-02-14T03:05:28;11.00;99.90
21582;DHT22;10952;50.836;4.348;2024-02-14T03:07:54;10.90;99.90
21582;DHT22;10952;50.836;4.348;2024-02-14T03:10:22;11.00;99.90
21582;DHT22;10952;50.836;4.348;2024-02-14T03:12:48;11.00;99.90
21582;DHT22;10952;50.836;4.348;2024-02-14T03:15:15;11.00;99.90
21582;DHT22;10952;50.836;4.348;2024-02-14T03:17:41;11.00;99.90
21582;DHT22;10952;50.836;4.348;2024-02-14T03:20:08;11.00;99.90
21582;DHT22;10952;50.836;4.348;2024-02-14T03:22:39;11.10;99.90
21582;DHT22;10952;50.836;4.348;2024-02-14T03:25:16;11.00;99.90
21582;DHT22;10952;50.836;4.348;2024-02-14T03:27:42;11.10;99.90
21582;DHT22;10952;50.836;4.348;2024-02-14T03:30:11;11.00;99.90
21582;DHT22;10952;50.836;4.348;2024-02-14T03:32:38;10.90;99.90
21582;DHT22;10952;50.836;4.348;2024-02-14T03:35:04;10.90;99.90
21582;DHT22;10952;50.836;4.348;2024-02-14T03:37:31;11.00;99.90
21582;DHT22;10952;50.836;4.348;2024-02-14T03:39:57;10.90;99.90
21582;DHT22;10952;50.836;4.348;2024-02-14T03:42:23;11.00;99.90
21582;DHT22;10952;50.836;4.348;2024-02-14T03:44:49;11.00;99.90
21582;DHT22;10952;50.836;4.348;2024-02-14T03:47:14;10.90;99.90
21582;DHT22;10952;50.836;4.348;2024-02-14T03:49:40;11.00;99.90
21582;DHT22;10952;50.836;4.348;2024-02-14T03:52:08;11.00;99.90
21582;DHT22;10952;50.836;4.348;2024-02-14T03:54:36;11.00;99.90
21582;DHT22;10952;50.836;4.348;2024-02-14T03:57:02;10.80;99.90
21582;DHT22;10952;50.836;4.348;2024-02-14T03:59:29;10.80;99.90
21582;DHT22;10952;50.836;4.348;2024-02-14T04:01:55;10.90;99.90
21582;DHT22;10952;50.836;4.348;2024-02-14T04:04:21;10.90;99.90
21582;DHT22;10952;50.836;4.348;2024-02-14T04:06:47;10.90;99.90
21582;DHT22;10952;50.836;4.348;2024-02-14T04:09:13;11.00;99.90
21582;DHT22;10952;50.836;4.348;2024-02-14T04:11:38;10.90;99.90
21582;DHT22;10952;50.836;4.348;2024-02-14T04:14:05;10.90;99.90
21582;DHT22;10952;50.836;4.348;2024-02-14T04:16:30;10.90;99.90
21582;DHT22;10952;50.836;4.348;2024-02-14T04:18:56;10.90;99.90
21582;DHT22;10952;50.836;4.348;2024-02-14T04:21:22;10.90;99.90
21582;DHT22;10952;50.836;4.348;2024-02-14T04:23:48;10.90;99.90
21582;DHT22;10952;50.836;4.348;2024-02-14T04:26:23;10.80;99.90
21582;DHT22;10952;50.836;4.348;2024-02-14T04:28:48;10.90;99.90
21582;DHT22;10952;50.836;4.348;2024-02-14T04:31:14;10.90;99.90
21582;DHT22;10952;50.836;4.348;2024-02-14T04:33:41;10.80;99.90
21582;DHT22;10952;50.836;4.348;2024-02-14T04:36:07;10.80;99.90
21582;DHT22;10952;50.836;4.348;2024-02-14T04:38:32;11.00;99.90
21582;DHT22;10952;50.836;4.348;2024-02-14T04:40:58;10.90;99.90
21582;DHT22;10952;50.836;4.348;2024-02-14T04:43:28;11.00;99.90
21582;DHT22;10952;50.836;4.348;2024-02-14T04:45:53;11.00;99.90
21582;DHT22;10952;50.836;4.348;2024-02-14T04:48:20;11.10;99.90
21582;DHT22;10952;50.836;4.348;2024-02-14T04:50:45;11.10;99.90
21582;DHT22;10952;50.836;4.348;2024-02-14T04:53:11;11.10;99.90
21582;DHT22;10952;50.836;4.348;2024-02-14T04:55:37;11.20;99.90
21582;DHT22;10952;50.836;4.348;2024-02-14T04:58:03;11.20;99.90
21582;DHT22;10952;50.836;4.348;2024-02-14T05:00:30;11.20;99.90
21582;DHT22;10952;50.836;4.348;2024-02-14T05:02:55;11.20;99.90
21582;DHT22;10952;50.836;4.348;2024-02-14T05:05:22;11.30;99.90
21582;DHT22;10952;50.836;4.348;2024-02-14T05:07:48;11.40;99.90
21582;DHT22;10952;50.836;4.348;2024-02-14T05:10:14;11.30;99.90
21582;DHT22;10952;50.836;4.348;2024-02-14T05:12:40;11.30;99.90
21582;DHT22;10952;50.836;4.348;2024-02-14T05:15:07;11.30;99.90
21582;DHT22;10952;50.836;4.348;2024-02-14T05:17:32;11.20;99.90
21582;DHT22;10952;50.836;4.348;2024-02-14T05:19:58;11.30;99.90
21582;DHT22;10952;50.836;4.348;2024-02-14T05:22:23;11.20;99.90
21582;DHT22;10952;50.836;4.348;2024-02-14T05:24:49;11.30;99.90
21582;DHT22;10952;50.836;4.348;2024-02-14T05:27:15;11.30;99.90
21582;DHT22;10952;50.836;4.348;2024-02-14T05:29:40;11.30;99.90
21582;DHT22;10952;50.836;4.348;2024-02-14T05:32:06;11.40;99.90
21582;DHT22;10952;50.836;4.348;2024-02-14T05:34:35;11.50;99.90
21582;DHT22;10952;50.836;4.348;2024-02-14T05:37:00;11.50;99.90
21582;DHT22;10952;50.836;4.348;2024-02-14T05:39:26;11.40;99.90
21582;DHT22;10952;50.836;4.348;2024-02-14T05:41:51;11.40;99.90
21582;DHT22;10952;50.836;4.348;2024-02-14T05:44:20;11.50;99.90
21582;DHT22;10952;50.836;4.348;2024-02-14T05:46:46;11.50;99.90
21582;DHT22;10952;50.836;4.348;2024-02-14T05:49:13;11.60;99.90
21582;DHT22;10952;50.836;4.348;2024-02-14T05:51:39;11.50;99.90
21582;DHT22;10952;50.836;4.348;2024-02-14T05:54:06;11.60;99.90
21582;DHT22;10952;50.836;4.348;2024-02-14T05:56:32;11.60;99.90
21582;DHT22;10952;50.836;4.348;2024-02-14T05:58:57;11.60;99.90
21582;DHT22;10952;50.836;4.348;2024-02-14T06:01:23;11.60;99.90
21582;DHT22;10952;50.836;4.348;2024-02-14T06:03:49;11.60;99.90
21582;DHT22;10952;50.836;4.348;2024-02-14T06:06:14;11.60;99.90
21582;DHT22;10952;50.836;4.348;2024-02-14T06:08:40;11.70;99.90
21582;DHT22;10952;50.836;4.348;2024-02-14T06:11:06;11.70;99.90
21582;DHT22;10952;50.836;4.348;2024-02-14T06:13:31;11.70;99.90
21582;DHT22;10952;50.836;4.348;2024-02-14T06:15:57;11.70;99.90
21582;DHT22;10952;50.836;4.348;2024-02-14T06:18:23;11.70;99.90
21582;DHT22;10952;50.836;4.348;2024-02-14T06:20:49;11.80;99.90
21582;DHT22;10952;50.836;4.348;2024-02-14T06:23:15;11.80;99.90
21582;DHT22;10952;50.836;4.348;2024-02-14T06:25:40;11.70;99.90
21582;DHT22;10952;50.836;4.348;2024-02-14T06:28:06;11.80;99.90
21582;DHT22;10952;50.836;4.348;2024-02-14T06:30:32;11.80;99.90
21582;DHT22;10952;50.836;4.348;2024-02-14T06:32:57;11.70;99.90
21582;DHT22;10952;50.836;4.348;2024-02-14T06:35:26;11.70;99.90
21582;DHT22;10952;50.836;4.348;2024-02-14T06:37:52;11.80;99.90
21582;DHT22;10952;50.836;4.348;2024-02-14T06:40:17;11.70;99.90
21582;DHT22;10952;50.836;4.348;2024-02-14T06:42:43;11.70;99.90
21582;DHT22;10952;50.836;4.348;2024-02-14T06:45:09;11.70;99.90
21582;DHT22;10952;50.836;4.348;2024-02-14T06:47:34;11.80;99.90
21582;DHT22;10952;50.836;4.348;2024-02-14T06:50:00;11.70;99.90
21582;DHT22;10952;50.836;4.348;2024-02-14T06:52:26;11.70;99.90
21582;DHT22;10952;50.836;4.348;2024-02-14T06:54:52;11.70;99.90
21582;DHT22;10952;50.836;4.348;2024-02-14T06:57:17;11.70;99.90
21582;DHT22;10952;50.836;4.348;2024-02-14T06:59:43;11.70;99.90
21582;DHT22;10952;50.836;4.348;2024-02-14T07:02:09;11.80;99.90
21582;DHT22;10952;50.836;4.348;2024-02-14T07:04:34;11.80;99.90
21582;DHT22;10952;50.836;4.348;2024-02-14T07:07:00;11.90;99.90
21582;DHT22;10952;50.836;4.348;2024-02-14T07:09:26;11.90;99.90
21582;DHT22;10952;50.836;4.348;2024-02-14T07:11:52;11.90;99.90
21582;DHT22;10952;50.836;4.348;2024-02-14T07:14:23;11.90;99.90
21582;DHT22;10952;50.836;4.348;2024-02-14T07:16:49;12.00;99.90
21582;DHT22;10952;50.836;4.348;2024-02-14T07:19:14;11.90;99.90
21582;DHT22;10952;50.836;4.348;2024-02-14T07:21:40;12.00;99.90
21582;DHT22;10952;50.836;4.348;2024-02-14T07:24:06;12.00;99.90
21582;DHT22;10952;50.836;4.348;2024-02-14T07:26:31;12.00;99.90
21582;DHT22;10952;50.836;4.348;2024-02-14T07:28:57;12.10;99.90
21582;DHT22;10952;50.836;4.348;2024-02-14T07:31:23;12.10;99.90
21582;DHT22;10952;50.836;4.348;2024-02-14T07:33:49;12.20;99.90
21582;DHT22;10952;50.836;4.348;2024-02-14T07:36:18;12.20;99.90
21582;DHT22;10952;50.836;4.348;2024-02-14T07:38:44;12.20;99.90
21582;DHT22;10952;50.836;4.348;2024-02-14T07:41:09;12.10;99.90
21582;DHT22;10952;50.836;4.348;2024-02-14T07:43:35;12.10;99.90
21582;DHT22;10952;50.836;4.348;2024-02-14T07:46:01;12.10;99.90
21582;DHT22;10952;50.836;4.348;2024-02-14T07:48:27;12.20;99.90
21582;DHT22;10952;50.836;4.348;2024-02-14T07:50:52;12.20;99.90
21582;DHT22;10952;50.836;4.348;2024-02-14T07:53:18;12.20;99.90
21582;DHT22;10952;50.836;4.348;2024-02-14T07:55:44;12.30;99.90
21582;DHT22;10952;50.836;4.348;2024-02-14T07:58:09;12.30;99.90
21582;DHT22;10952;50.836;4.348;2024-02-14T08:00:35;12.20;99.90
21582;DHT22;10952;50.836;4.348;2024-02-14T08:03:01;12.30;99.90
21582;DHT22;10952;50.836;4.348;2024-02-14T08:05:29;12.30;99.90
21582;DHT22;10952;50.836;4.348;2024-02-14T08:07:54;12.20;99.90
21582;DHT22;10952;50.836;4.348;2024-02-14T08:10:20;12.20;99.90
21582;DHT22;10952;50.836;4.348;2024-02-14T08:12:45;12.20;99.90
21582;DHT22;10952;50.836;4.348;2024-02-14T08:15:12;12.20;99.90
21582;DHT22;10952;50.836;4.348;2024-02-14T08:17:38;12.20;99.90
21582;DHT22;10952;50.836;4.348;2024-02-14T08:20:04;12.20;99.90
21582;DHT22;10952;50.836;4.348;2024-02-14T08:22:31;12.20;99.90
21582;DHT22;10952;50.836;4.348;2024-02-14T08:24:57;12.30;99.90
21582;DHT22;10952;50.836;4.348;2024-02-14T08:27:23;12.30;99.90
21582;DHT22;10952;50.836;4.348;2024-02-14T08:29:49;12.30;99.90
21582;DHT22;10952;50.836;4.348;2024-02-14T08:32:16;12.30;99.90
21582;DHT22;10952;50.836;4.348;2024-02-14T08:34:41;12.40;99.90
21582;DHT22;10952;50.836;4.348;2024-02-14T08:37:07;12.40;99.90
21582;DHT22;10952;50.836;4.348;2024-02-14T08:39:34;12.40;99.90
21582;DHT22;10952;50.836;4.348;2024-02-14T08:41:59;12.40;99.90
21582;DHT22;10952;50.836;4.348;2024-02-14T08:44:28;12.30;99.90
21582;DHT22;10952;50.836;4.348;2024-02-14T08:46:54;12.30;99.90
21582;DHT22;10952;50.836;4.348;2024-02-14T08:49:20;12.30;99.90
21582;DHT22;10952;50.836;4.348;2024-02-14T08:51:45;12.30;99.90
21582;DHT22;10952;50.836;4.348;2024-02-14T08:54:11;12.40;99.90
21582;DHT22;10952;50.836;4.348;2024-02-14T08:56:37;12.40;99.90
21582;DHT22;10952;50.836;4.348;2024-02-14T08:59:03;12.40;99.90
21582;DHT22;10952;50.836;4.348;2024-02-14T09:01:30;12.40;99.90
21582;DHT22;10952;50.836;4.348;2024-02-14T09:03:56;12.50;99.90
21582;DHT22;10952;50.836;4.348;2024-02-14T09:06:22;12.60;99.90
21582;DHT22;10952;50.836;4.348;2024-02-14T09:08:48;12.60;99.90
21582;DHT22;10952;50.836;4.348;2024-02-14T09:11:16;12.70;99.90
21582;DHT22;10952;50.836;4.348;2024-02-14T09:13:41;12.60;99.90
21582;DHT22;10952;50.836;4.348;2024-02-14T09:16:08;12.70;99.90
21582;DHT22;10952;50.836;4.348;2024-02-14T09:18:34;12.70;99.90
21582;DHT22;10952;50.836;4.348;2024-02-14T09:21:00;12.70;99.90
21582;DHT22;10952;50.836;4.348;2024-02-14T09:23:29;12.70;99.90
21582;DHT22;10952;50.836;4.348;2024-02-14T09:25:55;12.80;99.90
21582;DHT22;10952;50.836;4.348;2024-02-14T09:31:05;12.70;99.90
21582;DHT22;10952;50.836;4.348;2024-02-14T09:38:35;12.60;99.90
21582;DHT22;10952;50.836;4.348;2024-02-14T09:46:49;12.50;99.90
21582;DHT22;10952;50.836;4.348;2024-02-14T09:49:28;12.50;99.90
21582;DHT22;10952;50.836;4.348;2024-02-14T09:55:19;12.40;99.90
21582;DHT22;10952;50.836;4.348;2024-02-14T10:01:36;12.50;99.90
21582;DHT22;10952;50.836;4.348;2024-02-14T10:08:02;12.50;99.90
21582;DHT22;10952;50.836;4.348;2024-02-14T10:11:13;12.30;99.90
21582;DHT22;10952;50.836;4.348;2024-02-14T10:14:36;12.50;99.90
21582;DHT22;10952;50.836;4.348;2024-02-14T10:17:36;12.60;99.90
21582;DHT22;10952;50.836;4.348;2024-02-14T10:20:18;12.40;99.90
21582;DHT22;10952;50.836;4.348;2024-02-14T10:23:07;12.50;99.90
21582;DHT22;10952;50.836;4.348;2024-02-14T10:25:35;12.50;99.90
21582;DHT22;10952;50.836;4.348;2024-02-14T10:28:05;12.50;99.90
21582;DHT22;10952;50.836;4.348;2024-02-14T10:30:37;12.50;99.90
21582;DHT22;10952;50.836;4.348;2024-02-14T10:33:07;12.50;99.90
21582;DHT22;10952;50.836;4.348;2024-02-14T10:35:36;12.60;99.90
21582;DHT22;10952;50.836;4.348;2024-02-14T10:38:12;12.60;99.90
21582;DHT22;10952;50.836;4.348;2024-02-14T10:41:09;12.60;99.90
21582;DHT22;10952;50.836;4.348;2024-02-14T10:46:52;12.80;99.90
21582;DHT22;10952;50.836;4.348;2024-02-14T10:55:24;12.70;99.90
21582;DHT22;10952;50.836;4.348;2024-02-14T10:58:04;12.70;99.90
21582;DHT22;10952;50.836;4.348;2024-02-14T11:01:01;12.70;99.90
21582;DHT22;10952;50.836;4.348;2024-02-14T11:24:18;12.80;99.90
21582;DHT22;10952;50.836;4.348;2024-02-14T11:26:51;12.80;99.90
21582;DHT22;10952;50.836;4.348;2024-02-14T11:29:20;12.90;99.90
21582;DHT22;10952;50.836;4.348;2024-02-14T11:31:46;13.00;99.90
21582;DHT22;10952;50.836;4.348;2024-02-14T11:34:20;12.90;99.90
21582;DHT22;10952;50.836;4.348;2024-02-14T11:36:53;13.00;99.90
21582;DHT22;10952;50.836;4.348;2024-02-14T11:39:21;12.90;99.90
21582;DHT22;10952;50.836;4.348;2024-02-14T11:41:48;13.00;99.90
21582;DHT22;10952;50.836;4.348;2024-02-14T11:44:16;13.10;99.90
21582;DHT22;10952;50.836;4.348;2024-02-14T11:47:02;13.00;99.90
21582;DHT22;10952;50.836;4.348;2024-02-14T11:49:35;13.10;99.90
21582;DHT22;10952;50.836;4.348;2024-02-14T11:52:02;13.00;99.90
21582;DHT22;10952;50.836;4.348;2024-02-14T11:54:30;13.00;99.90
21582;DHT22;10952;50.836;4.348;2024-02-14T11:57:08;13.00;99.90
21582;DHT22;10952;50.836;4.348;2024-02-14T11:59:41;13.10;99.90
21582;DHT22;10952;50.836;4.348;2024-02-14T12:02:11;13.20;99.90
21582;DHT22;10952;50.836;4.348;2024-02-14T12:04:38;13.30;99.90
21582;DHT22;10952;50.836;4.348;2024-02-14T12:07:06;13.30;99.90
21582;DHT22;10952;50.836;4.348;2024-02-14T12:09:35;13.50;99.90
21582;DHT22;10952;50.836;4.348;2024-02-14T12:12:05;13.50;99.90
21582;DHT22;10952;50.836;4.348;2024-02-14T12:15:14;13.50;99.90
21582;DHT22;10952;50.836;4.348;2024-02-14T12:21:50;13.60;99.90
21582;DHT22;10952;50.836;4.348;2024-02-14T12:24:37;13.70;99.90
21582;DHT22;10952;50.836;4.348;2024-02-14T12:27:21;13.50;99.90
21582;DHT22;10952;50.836;4.348;2024-02-14T12:30:15;13.70;99.90
21582;DHT22;10952;50.836;4.348;2024-02-14T12:33:03;13.70;99.90
21582;DHT22;10952;50.836;4.348;2024-02-14T12:38:57;13.80;99.90
21582;DHT22;10952;50.836;4.348;2024-02-14T12:41:50;13.80;99.90
21582;DHT22;10952;50.836;4.348;2024-02-14T12:44:19;13.80;99.90
21582;DHT22;10952;50.836;4.348;2024-02-14T12:46:48;13.90;99.90
21582;DHT22;10952;50.836;4.348;2024-02-14T12:49:20;14.00;99.90
21582;DHT22;10952;50.836;4.348;2024-02-14T12:52:00;14.10;99.90
21582;DHT22;10952;50.836;4.348;2024-02-14T12:54:51;14.00;99.90
21582;DHT22;10952;50.836;4.348;2024-02-14T12:57:31;13.90;99.90
21582;DHT22;10952;50.836;4.348;2024-02-14T13:00:07;13.90;99.90
21582;DHT22;10952;50.836;4.348;2024-02-14T13:06:29;13.90;99.90
21582;DHT22;10952;50.836;4.348;2024-02-14T13:08:55;13.90;99.90
21582;DHT22;10952;50.836;4.348;2024-02-14T13:11:23;13.90;99.90
21582;DHT22;10952;50.836;4.348;2024-02-14T13:13:49;13.90;99.90
21582;DHT22;10952;50.836;4.348;2024-02-14T13:16:14;13.80;99.90
21582;DHT22;10952;50.836;4.348;2024-02-14T13:18:43;13.80;99.90
21582;DHT22;10952;50.836;4.348;2024-02-14T13:21:38;13.80;99.90
21582;DHT22;10952;50.836;4.348;2024-02-14T13:24:27;13.80;99.90
21582;DHT22;10952;50.836;4.348;2024-02-14T13:26:57;13.70;99.90
21582;DHT22;10952;50.836;4.348;2024-02-14T13:44:56;13.90;99.90
21582;DHT22;10952;50.836;4.348;2024-02-14T13:48:01;13.90;99.90
21582;DHT22;10952;50.836;4.348;2024-02-14T13:50:31;13.80;99.90
21582;DHT22;10952;50.836;4.348;2024-02-14T13:52:59;13.70;99.90
21582;DHT22;10952;50.836;4.348;2024-02-14T13:55:28;13.70;99.90
21582;DHT22;10952;50.836;4.348;2024-02-14T13:58:01;13.70;99.90
21582;DHT22;10952;50.836;4.348;2024-02-14T14:00:42;13.60;99.90
21582;DHT22;10952;50.836;4.348;2024-02-14T14:03:27;13.60;99.90
21582;DHT22;10952;50.836;4.348;2024-02-14T14:05:55;13.60;99.90
21582;DHT22;10952;50.836;4.348;2024-02-14T14:08:23;13.60;99.90
21582;DHT22;10952;50.836;4.348;2024-02-14T14:11:10;13.60;99.90
21582;DHT22;10952;50.836;4.348;2024-02-14T14:13:41;13.60;99.90
21582;DHT22;10952;50.836;4.348;2024-02-14T14:16:07;13.70;99.90
21582;DHT22;10952;50.836;4.348;2024-02-14T14:18:35;13.80;99.90
21582;DHT22;10952;50.836;4.348;2024-02-14T14:21:01;13.80;99.90
21582;DHT22;10952;50.836;4.348;2024-02-14T14:23:36;13.90;99.90
21582;DHT22;10952;50.836;4.348;2024-02-14T14:26:05;13.80;99.90
21582;DHT22;10952;50.836;4.348;2024-02-14T14:28:34;13.90;99.90
21582;DHT22;10952;50.836;4.348;2024-02-14T14:31:13;13.90;99.90
21582;DHT22;10952;50.836;4.348;2024-02-14T14:33:53;13.80;99.90
21582;DHT22;10952;50.836;4.348;2024-02-14T14:36:53;13.90;99.90
21582;DHT22;10952;50.836;4.348;2024-02-14T14:42:36;13.80;99.90
21582;DHT22;10952;50.836;4.348;2024-02-14T14:45:02;13.80;99.90
21582;DHT22;10952;50.836;4.348;2024-02-14T14:47:39;13.90;99.90
21582;DHT22;10952;50.836;4.348;2024-02-14T14:50:10;13.80;99.90
21582;DHT22;10952;50.836;4.348;2024-02-14T14:52:51;13.90;99.90
21582;DHT22;10952;50.836;4.348;2024-02-14T14:55:19;13.80;99.90
21582;DHT22;10952;50.836;4.348;2024-02-14T14:58:31;13.90;99.90
21582;DHT22;10952;50.836;4.348;2024-02-14T15:01:01;13.90;99.90
21582;DHT22;10952;50.836;4.348;2024-02-14T15:03:32;14.00;99.90
21582;DHT22;10952;50.836;4.348;2024-02-14T15:06:12;14.10;99.90
21582;DHT22;10952;50.836;4.348;2024-02-14T15:13:48;14.10;99.90
21582;DHT22;10952;50.836;4.348;2024-02-14T15:18:59;14.00;99.90
21582;DHT22;10952;50.836;4.348;2024-02-14T15:21:47;14.00;99.90
21582;DHT22;10952;50.836;4.348;2024-02-14T15:24:16;13.90;99.90
21582;DHT22;10952;50.836;4.348;2024-02-14T15:26:45;14.00;99.90
21582;DHT22;10952;50.836;4.348;2024-02-14T15:29:31;14.00;99.90
21582;DHT22;10952;50.836;4.348;2024-02-14T15:45:20;14.10;99.90
21582;DHT22;10952;50.836;4.348;2024-02-14T15:50:31;14.20;99.90
21582;DHT22;10952;50.836;4.348;2024-02-14T15:53:06;14.20;99.90
21582;DHT22;10952;50.836;4.348;2024-02-14T15:56:05;14.20;99.90
21582;DHT22;10952;50.836;4.348;2024-02-14T16:02:02;14.30;99.90
21582;DHT22;10952;50.836;4.348;2024-02-14T16:07:30;14.30;99.90
21582;DHT22;10952;50.836;4.348;2024-02-14T16:10:14;14.30;99.90
21582;DHT22;10952;50.836;4.348;2024-02-14T16:12:56;14.40;99.90
21582;DHT22;10952;50.836;4.348;2024-02-14T16:15:24;14.40;99.90
21582;DHT22;10952;50.836;4.348;2024-02-14T16:17:51;14.50;99.90
21582;DHT22;10952;50.836;4.348;2024-02-14T16:20:34;14.40;99.90
21582;DHT22;10952;50.836;4.348;2024-02-14T16:23:06;14.40;99.90
21582;DHT22;10952;50.836;4.348;2024-02-14T16:25:41;14.30;99.90
21582;DHT22;10952;50.836;4.348;2024-02-14T16:31:16;14.20;99.90
21582;DHT22;10952;50.836;4.348;2024-02-14T16:44:52;14.20;99.90
21582;DHT22;10952;50.836;4.348;2024-02-14T16:47:19;14.10;99.90
21582;DHT22;10952;50.836;4.348;2024-02-14T16:49:49;14.20;99.90
21582;DHT22;10952;50.836;4.348;2024-02-14T16:52:15;14.20;99.90
21582;DHT22;10952;50.836;4.348;2024-02-14T16:54:44;14.30;99.90
21582;DHT22;10952;50.836;4.348;2024-02-14T16:57:35;14.20;99.90
21582;DHT22;10952;50.836;4.348;2024-02-14T17:00:12;14.20;99.90
21582;DHT22;10952;50.836;4.348;2024-02-14T17:02:43;14.20;99.90
21582;DHT22;10952;50.836;4.348;2024-02-14T17:05:13;14.20;99.90
21582;DHT22;10952;50.836;4.348;2024-02-14T17:07:49;14.30;99.90
21582;DHT22;10952;50.836;4.348;2024-02-14T17:10:22;14.20;99.90
21582;DHT22;10952;50.836;4.348;2024-02-14T17:12:55;14.10;99.90
21582;DHT22;10952;50.836;4.348;2024-02-14T17:15:24;14.10;99.90
21582;DHT22;10952;50.836;4.348;2024-02-14T17:17:50;14.10;99.90
21582;DHT22;10952;50.836;4.348;2024-02-14T17:20:52;14.10;99.90
21582;DHT22;10952;50.836;4.348;2024-02-14T17:23:36;14.10;99.90
21582;DHT22;10952;50.836;4.348;2024-02-14T17:26:08;14.20;99.90
21582;DHT22;10952;50.836;4.348;2024-02-14T17:28:43;14.30;99.90
21582;DHT22;10952;50.836;4.348;2024-02-14T17:31:42;14.30;99.90
21582;DHT22;10952;50.836;4.348;2024-02-14T17:34:16;14.30;99.90
21582;DHT22;10952;50.836;4.348;2024-02-14T17:37:06;14.40;99.90
21582;DHT22;10952;50.836;4.348;2024-02-14T17:39:32;14.40;99.90
21582;DHT22;10952;50.836;4.348;2024-02-14T17:42:03;14.40;99.90
21582;DHT22;10952;50.836;4.348;2024-02-14T17:44:37;14.40;99.90
21582;DHT22;10952;50.836;4.348;2024-02-14T17:47:05;14.50;99.90
21582;DHT22;10952;50.836;4.348;2024-02-14T17:49:31;14.40;99.90
21582;DHT22;10952;50.836;4.348;2024-02-14T17:52:00;14.50;99.90
21582;DHT22;10952;50.836;4.348;2024-02-14T17:54:26;14.40;99.90
21582;DHT22;10952;50.836;4.348;2024-02-14T17:57:17;14.50;99.90